createdAt,value
2023-02-02T00:01:26.743Z,9.20
2023-02-02T00:03:56.000Z,9.20
2023-02-02T00:06:27.431Z,9.20
2023-02-02T00:08:58.028Z,9.20
2023-02-02T00:11:26.757Z,9.20
2023-02-02T00:13:55.054Z,9.20
2023-02-02T00:16:39.118Z,9.20
2023-02-02T00:19:09.391Z,9.20
2023-02-02T00:21:39.234Z,9.20
2023-02-02T00:24:09.236Z,9.20
2023-02-02T00:26:38.530Z,9.20
2023-02-02T00:29:08.120Z,9.30
2023-02-02T00:31:36.357Z,9.30
2023-02-02T00:34:04.594Z,9.30
2023-02-02T00:36:32.792Z,9.30
2023-02-02T00:39:02.447Z,9.30
2023-02-02T00:41:30.790Z,9.30
2023-02-02T00:44:16.187Z,9.30
2023-02-02T00:46:44.547Z,9.30
2023-02-02T00:49:12.762Z,9.30
2023-02-02T00:51:40.945Z,9.40
2023-02-02T00:54:10.674Z,9.40
2023-02-02T00:56:38.917Z,9.40
2023-02-02T00:59:07.530Z,9.30
2023-02-02T01:01:35.832Z,9.30
2023-02-02T01:04:04.098Z,9.30
2023-02-02T01:06:32.438Z,9.30
2023-02-02T01:09:00.639Z,9.30
2023-02-02T01:11:30.793Z,9.30
2023-02-02T01:13:59.375Z,9.30
2023-02-02T01:16:27.701Z,9.30
2023-02-02T01:18:55.914Z,9.20
2023-02-02T01:21:24.576Z,9.20
2023-02-02T01:23:52.808Z,9.20
2023-02-02T01:26:21.033Z,9.40
2023-02-02T01:28:50.565Z,9.20
2023-02-02T01:31:21.222Z,9.20
2023-02-02T01:33:50.924Z,9.20
2023-02-02T01:36:21.501Z,9.20
2023-02-02T01:38:50.722Z,9.20
2023-02-02T01:41:21.290Z,9.10
2023-02-02T01:43:57.014Z,9.10
2023-02-02T01:46:27.429Z,9.10
2023-02-02T01:49:07.216Z,9.10
2023-02-02T01:51:41.702Z,9.10
2023-02-02T01:54:13.553Z,9.10
2023-02-02T01:56:47.316Z,9.30
2023-02-02T01:59:18.827Z,9.10
2023-02-02T02:01:49.759Z,9.10
2023-02-02T02:04:19.186Z,9.20
2023-02-02T02:06:48.232Z,9.20
2023-02-02T02:09:17.169Z,9.20
2023-02-02T02:11:45.421Z,9.20
2023-02-02T02:14:32.439Z,9.10
2023-02-02T02:17:23.425Z,9.20
2023-02-02T02:20:41.917Z,9.20
2023-02-02T02:23:56.193Z,9.20
2023-02-02T02:26:56.966Z,9.30
2023-02-02T02:30:03.559Z,9.30
2023-02-02T02:32:46.026Z,9.30
2023-02-02T02:35:24.626Z,9.30
2023-02-02T02:37:59.001Z,9.30
2023-02-02T02:40:33.593Z,9.40
2023-02-02T02:43:06.443Z,9.30
2023-02-02T02:45:35.847Z,9.40
2023-02-02T02:48:06.100Z,9.40
2023-02-02T02:50:34.265Z,9.40
2023-02-02T02:53:07.235Z,9.40
2023-02-02T02:55:47.592Z,9.40
2023-02-02T02:58:21.842Z,9.50
2023-02-02T03:01:00.192Z,9.40
2023-02-02T03:03:41.836Z,9.40
2023-02-02T03:06:17.124Z,9.40
2023-02-02T03:08:48.972Z,9.50
2023-02-02T03:11:17.696Z,9.40
2023-02-02T03:13:45.972Z,9.50
2023-02-02T03:16:17.194Z,9.40
2023-02-02T03:18:46.909Z,9.50
2023-02-02T03:21:15.061Z,9.40
2023-02-02T03:23:43.223Z,9.40
2023-02-02T03:26:11.801Z,9.40
2023-02-02T03:28:40.258Z,9.40
2023-02-02T03:31:08.833Z,9.40
2023-02-02T03:33:38.816Z,9.40
2023-02-02T03:36:09.456Z,9.40
2023-02-02T03:38:37.730Z,9.40
2023-02-02T03:41:06.880Z,9.40
2023-02-02T03:43:35.160Z,9.40
2023-02-02T03:46:05.398Z,9.40
2023-02-02T03:48:37.036Z,9.40
2023-02-02T03:51:09.324Z,9.40
2023-02-02T03:53:37.541Z,9.40
2023-02-02T03:56:06.206Z,9.40
2023-02-02T03:58:34.879Z,9.40
2023-02-02T04:01:05.117Z,9.50
2023-02-02T04:03:33.424Z,9.50
2023-02-02T04:06:03.502Z,9.50
2023-02-02T04:08:34.099Z,9.50
2023-02-02T04:11:02.680Z,9.50
2023-02-02T04:13:30.929Z,9.50
2023-02-02T04:16:00.050Z,9.50
2023-02-02T04:18:28.910Z,9.50
2023-02-02T04:20:59.321Z,9.50
2023-02-02T04:23:28.660Z,9.50
2023-02-02T04:25:59.116Z,9.50
2023-02-02T04:28:27.957Z,9.50
2023-02-02T04:30:56.990Z,9.50
2023-02-02T04:33:26.839Z,9.50
2023-02-02T04:35:55.015Z,9.50
2023-02-02T04:38:23.276Z,9.50
2023-02-02T04:40:51.564Z,9.50
2023-02-02T04:43:21.141Z,9.50
2023-02-02T04:45:50.322Z,9.50
2023-02-02T04:48:18.512Z,9.50
2023-02-02T04:50:46.722Z,9.80
2023-02-02T04:53:17.169Z,9.60
2023-02-02T04:55:45.278Z,9.50
2023-02-02T04:58:13.408Z,9.60
2023-02-02T05:00:43.026Z,9.60
2023-02-02T05:03:11.148Z,9.60
2023-02-02T05:05:39.251Z,9.50
2023-02-02T05:08:08.280Z,9.50
2023-02-02T05:10:36.579Z,9.60
2023-02-02T05:13:04.866Z,9.60
2023-02-02T05:15:33.071Z,9.60
2023-02-02T05:18:02.591Z,9.60
2023-02-02T05:20:30.731Z,9.60
2023-02-02T05:22:58.967Z,9.60
2023-02-02T05:25:27.368Z,9.60
2023-02-02T05:27:55.687Z,9.60
2023-02-02T05:30:23.885Z,9.60
2023-02-02T05:32:52.087Z,9.60
2023-02-02T05:35:21.638Z,9.60
2023-02-02T05:37:49.863Z,9.60
2023-02-02T05:40:18.792Z,9.60
2023-02-02T05:42:49.104Z,9.60
2023-02-02T05:45:17.698Z,9.60
2023-02-02T05:47:48.616Z,9.60
2023-02-02T05:50:22.450Z,9.60
2023-02-02T05:53:06.833Z,9.60
2023-02-02T05:55:35.232Z,9.60
2023-02-02T05:58:03.395Z,9.60
2023-02-02T06:00:31.691Z,9.70
2023-02-02T06:02:59.841Z,9.60
2023-02-02T06:05:28.004Z,9.50
2023-02-02T06:07:56.276Z,9.60
2023-02-02T06:10:25.753Z,9.50
2023-02-02T06:12:54.075Z,9.50
2023-02-02T06:15:22.450Z,9.60
2023-02-02T06:17:50.800Z,9.50
2023-02-02T06:20:22.259Z,9.60
2023-02-02T06:22:50.820Z,9.60
2023-02-02T06:25:19.360Z,9.60
2023-02-02T06:27:49.556Z,9.60
2023-02-02T06:30:18.663Z,9.60
2023-02-02T06:32:46.877Z,9.60
2023-02-02T06:35:15.253Z,9.60
2023-02-02T06:37:43.407Z,9.60
2023-02-02T06:40:13.733Z,9.60
2023-02-02T06:42:41.964Z,9.60
2023-02-02T06:45:12.800Z,9.60
2023-02-02T06:47:41.046Z,9.60
2023-02-02T06:50:10.540Z,9.60
2023-02-02T06:52:38.760Z,9.50
2023-02-02T06:55:07.696Z,9.50
2023-02-02T06:57:35.871Z,9.50
2023-02-02T07:00:04.673Z,9.50
2023-02-02T07:02:34.423Z,9.50
2023-02-02T07:05:02.781Z,9.50
2023-02-02T07:07:33.865Z,9.50
2023-02-02T07:10:02.101Z,9.50
2023-02-02T07:12:30.259Z,9.50
2023-02-02T07:14:59.463Z,9.50
2023-02-02T07:17:27.758Z,9.50
2023-02-02T07:19:57.311Z,9.50
2023-02-02T07:22:25.599Z,9.50
2023-02-02T07:24:53.785Z,9.50
2023-02-02T07:27:22.313Z,9.50
2023-02-02T07:29:50.556Z,9.50
2023-02-02T07:32:18.765Z,9.50
2023-02-02T07:34:47.026Z,9.50
2023-02-02T07:37:16.559Z,9.50
2023-02-02T07:39:44.789Z,9.50
2023-02-02T07:42:13.538Z,9.50
2023-02-02T07:44:43.168Z,9.50
2023-02-02T07:47:11.334Z,9.50
2023-02-02T07:49:39.717Z,9.50
2023-02-02T07:52:07.906Z,9.50
2023-02-02T07:54:37.604Z,9.50
2023-02-02T07:57:05.952Z,9.50
2023-02-02T07:59:34.433Z,9.50
2023-02-02T08:02:02.853Z,9.50
2023-02-02T08:04:33.494Z,9.50
2023-02-02T08:07:01.942Z,9.50
2023-02-02T08:09:30.191Z,9.50
2023-02-02T08:12:01.895Z,9.50
2023-02-02T08:14:30.365Z,9.50
2023-02-02T08:16:58.517Z,9.50
2023-02-02T08:19:26.779Z,9.50
2023-02-02T08:21:54.966Z,9.50
2023-02-02T08:24:23.572Z,9.50
2023-02-02T08:26:51.755Z,9.50
2023-02-02T08:29:21.357Z,9.50
2023-02-02T08:31:49.749Z,9.50
2023-02-02T08:34:18.088Z,9.50
2023-02-02T08:36:46.232Z,9.60
2023-02-02T08:39:14.768Z,9.50
2023-02-02T08:41:43.031Z,9.40
2023-02-02T08:44:15.412Z,9.40
2023-02-02T08:46:45.014Z,9.40
2023-02-02T08:49:14.525Z,9.40
2023-02-02T08:51:43.199Z,9.40
2023-02-02T08:54:11.479Z,9.40
2023-02-02T08:56:39.813Z,9.40
2023-02-02T08:59:08.181Z,9.30
2023-02-02T09:01:37.261Z,9.30
2023-02-02T09:04:08.342Z,9.30
2023-02-02T09:06:38.543Z,9.40
2023-02-02T09:09:08.496Z,9.30
2023-02-02T09:11:37.468Z,9.40
2023-02-02T09:14:06.547Z,9.40
2023-02-02T09:16:36.809Z,9.40
2023-02-02T09:19:07.052Z,9.40
2023-02-02T09:21:37.157Z,9.40
2023-02-02T09:24:08.997Z,9.40
2023-02-02T09:26:38.624Z,9.40
2023-02-02T09:29:08.508Z,9.40
2023-02-02T09:31:38.274Z,9.60
2023-02-02T09:34:09.746Z,9.40
2023-02-02T09:36:40.006Z,9.40
2023-02-02T09:39:08.863Z,9.40
2023-02-02T09:42:07.255Z,9.40
2023-02-02T09:44:57.007Z,9.40
2023-02-02T09:47:30.027Z,9.50
2023-02-02T09:50:05.788Z,9.50
2023-02-02T09:52:40.660Z,9.50
2023-02-02T09:55:16.281Z,9.50
2023-02-02T09:57:48.331Z,9.50
2023-02-02T10:00:28.655Z,9.70
2023-02-02T10:03:00.976Z,9.50
2023-02-02T10:05:35.478Z,9.70
2023-02-02T10:08:08.867Z,9.50
2023-02-02T10:10:40.787Z,9.50
2023-02-02T10:13:16.224Z,9.60
2023-02-02T10:15:53.122Z,9.60
2023-02-02T10:18:28.277Z,9.60
2023-02-02T10:21:01.206Z,9.60
2023-02-02T10:23:34.894Z,9.60
2023-02-02T10:26:09.255Z,9.60
2023-02-02T10:28:44.250Z,9.50
2023-02-02T10:31:37.682Z,9.50
2023-02-02T10:34:14.927Z,9.50
2023-02-02T10:36:54.485Z,9.50
2023-02-02T10:39:31.981Z,9.60
2023-02-02T10:42:13.047Z,9.60
2023-02-02T10:44:48.198Z,9.50
2023-02-02T10:47:25.186Z,9.50
2023-02-02T10:50:04.423Z,9.50
2023-02-02T10:52:36.910Z,9.60
2023-02-02T10:55:16.058Z,9.60
2023-02-02T10:58:07.684Z,9.60
2023-02-02T11:00:43.655Z,9.60
2023-02-02T11:03:14.398Z,9.60
2023-02-02T11:06:00.271Z,9.60
2023-02-02T11:08:34.757Z,9.60
2023-02-02T11:11:13.146Z,9.60
2023-02-02T11:13:46.664Z,9.70
2023-02-02T11:16:43.259Z,9.60
2023-02-02T11:19:33.929Z,9.70
2023-02-02T11:22:04.999Z,9.70
2023-02-02T11:24:42.313Z,9.70
2023-02-02T11:27:16.194Z,9.70
2023-02-02T11:29:48.368Z,9.70
2023-02-02T11:32:22.389Z,9.80
2023-02-02T11:34:50.799Z,9.80
2023-02-02T11:37:23.651Z,9.80
2023-02-02T11:39:54.045Z,9.80
2023-02-02T11:42:24.239Z,9.80
2023-02-02T11:44:55.539Z,9.80
2023-02-02T11:47:27.872Z,9.80
2023-02-02T11:49:58.716Z,9.80
2023-02-02T11:52:32.294Z,9.90
2023-02-02T11:55:11.021Z,9.80
2023-02-02T11:57:39.384Z,9.90
2023-02-02T12:00:17.508Z,9.80
2023-02-02T12:02:48.055Z,9.90
2023-02-02T12:05:35.550Z,9.80
2023-02-02T12:08:05.039Z,9.80
2023-02-02T12:10:42.521Z,10.10
2023-02-02T12:13:17.873Z,9.80
2023-02-02T12:15:51.981Z,9.80
2023-02-02T12:18:41.189Z,9.90
2023-02-02T12:21:16.363Z,9.90
2023-02-02T12:23:55.623Z,9.90
2023-02-02T12:26:30.658Z,9.80
2023-02-02T12:29:22.812Z,9.90
2023-02-02T12:32:07.477Z,9.90
2023-02-02T12:34:47.604Z,9.90
2023-02-02T12:37:26.634Z,9.90
2023-02-02T12:40:04.783Z,9.90
2023-02-02T12:42:57.499Z,9.90
2023-02-02T12:45:39.405Z,10.10
2023-02-02T12:48:30.313Z,9.90
2023-02-02T12:51:11.109Z,9.90
2023-02-02T12:54:34.425Z,9.90
2023-02-02T12:57:08.393Z,9.90
2023-02-02T12:59:58.232Z,9.90
2023-02-02T13:02:33.557Z,9.90
2023-02-02T13:05:31.904Z,9.90
2023-02-02T13:08:05.089Z,9.90
2023-02-02T13:10:37.700Z,10.00
2023-02-02T13:13:11.286Z,10.00
2023-02-02T13:15:45.125Z,10.00
2023-02-02T13:18:18.147Z,10.00
2023-02-02T13:20:49.906Z,10.00
2023-02-02T13:23:22.241Z,10.00
2023-02-02T13:25:54.687Z,10.00
2023-02-02T13:28:33.435Z,10.00
2023-02-02T13:31:07.754Z,10.00
2023-02-02T13:33:38.490Z,10.00
2023-02-02T13:36:14.846Z,10.00
2023-02-02T13:38:45.648Z,10.00
2023-02-02T13:41:14.781Z,10.00
2023-02-02T13:43:53.588Z,10.00
2023-02-02T13:46:31.584Z,10.00
2023-02-02T13:49:06.703Z,10.10
2023-02-02T13:51:54.757Z,10.00
2023-02-02T13:55:06.059Z,10.00
2023-02-02T14:00:39.337Z,10.00
2023-02-02T14:03:27.229Z,10.00
2023-02-02T14:06:05.828Z,10.00
2023-02-02T14:08:34.818Z,10.00
2023-02-02T14:11:06.169Z,10.00
2023-02-02T14:14:01.528Z,10.00
2023-02-02T14:16:48.065Z,10.00
2023-02-02T14:19:41.838Z,10.00
2023-02-02T14:22:39.083Z,10.00
2023-02-02T14:25:41.574Z,10.00
2023-02-02T14:28:12.251Z,10.00
2023-02-02T14:30:41.478Z,10.00
2023-02-02T14:33:42.069Z,10.00
2023-02-02T14:36:17.799Z,10.00
2023-02-02T14:39:12.044Z,10.00
2023-02-02T14:42:15.632Z,10.00
2023-02-02T14:45:07.936Z,10.00
2023-02-02T14:47:47.934Z,10.00
2023-02-02T14:50:18.782Z,10.00
2023-02-02T14:52:59.917Z,9.90
2023-02-02T14:55:28.923Z,9.90
2023-02-02T14:58:00.552Z,10.00
2023-02-02T15:00:32.666Z,10.00
2023-02-02T15:03:35.438Z,10.00
2023-02-02T15:06:14.355Z,10.00
2023-02-02T15:08:44.722Z,10.00
2023-02-02T15:11:32.140Z,10.00
2023-02-02T15:14:13.036Z,10.00
2023-02-02T15:16:42.373Z,10.10
2023-02-02T15:19:21.406Z,10.10
2023-02-02T15:21:53.246Z,10.10
2023-02-02T15:24:28.584Z,10.00
2023-02-02T15:26:59.993Z,10.00
2023-02-02T15:29:42.748Z,10.00
2023-02-02T15:32:17.595Z,10.00
2023-02-02T15:34:50.285Z,10.00
2023-02-02T15:37:24.062Z,10.00
2023-02-02T15:39:56.929Z,10.00
2023-02-02T15:42:50.405Z,9.90
2023-02-02T15:45:37.971Z,9.90
2023-02-02T15:48:19.764Z,9.90
2023-02-02T15:50:51.170Z,9.90
2023-02-02T15:53:22.258Z,9.90
2023-02-02T15:55:56.573Z,10.00
2023-02-02T15:58:30.479Z,9.90
2023-02-02T16:01:05.736Z,9.90
2023-02-02T16:03:39.456Z,9.90
2023-02-02T16:06:09.052Z,9.90
2023-02-02T16:08:41.401Z,10.10
2023-02-02T16:11:13.481Z,9.90
2023-02-02T16:13:43.800Z,10.10
2023-02-02T16:16:31.035Z,9.90
2023-02-02T16:19:15.660Z,10.00
2023-02-02T16:21:49.991Z,10.00
2023-02-02T16:24:23.245Z,9.90
2023-02-02T16:26:55.306Z,10.00
2023-02-02T16:29:23.978Z,10.00
2023-02-02T16:31:52.742Z,10.00
2023-02-02T16:34:46.764Z,10.00
2023-02-02T16:37:17.344Z,10.00
2023-02-02T16:39:45.787Z,10.00
2023-02-02T16:42:25.965Z,10.00
2023-02-02T16:44:55.580Z,10.00
2023-02-02T16:47:37.704Z,10.00
2023-02-02T16:50:27.733Z,10.00
2023-02-02T16:52:59.055Z,10.00
2023-02-02T16:55:47.531Z,10.00
2023-02-02T16:58:22.678Z,10.00
2023-02-02T17:01:13.592Z,10.00
2023-02-02T17:03:47.836Z,10.00
2023-02-02T17:06:16.143Z,10.00
2023-02-02T17:08:44.705Z,10.00
2023-02-02T17:11:23.448Z,10.00
2023-02-02T17:13:54.350Z,10.10
2023-02-02T17:16:24.403Z,10.30
2023-02-02T17:18:52.941Z,10.10
2023-02-02T17:21:23.931Z,10.00
2023-02-02T17:23:54.228Z,10.00
2023-02-02T17:26:22.780Z,10.00
2023-02-02T17:28:56.834Z,10.00
2023-02-02T17:31:25.141Z,10.00
2023-02-02T17:33:53.451Z,10.10
2023-02-02T17:36:21.657Z,10.10
2023-02-02T17:38:49.928Z,10.00
2023-02-02T17:41:20.627Z,10.00
2023-02-02T17:43:48.836Z,9.90
2023-02-02T17:46:18.640Z,10.00
2023-02-02T17:48:47.033Z,10.00
2023-02-02T17:51:17.373Z,10.00
2023-02-02T17:53:46.129Z,10.00
2023-02-02T17:56:14.383Z,10.00
2023-02-02T17:58:42.701Z,10.00
2023-02-02T18:01:12.814Z,10.00
2023-02-02T18:03:45.891Z,10.00
2023-02-02T18:06:14.201Z,10.00
2023-02-02T18:08:42.570Z,10.00
2023-02-02T18:11:13.454Z,10.00
2023-02-02T18:13:43.677Z,10.00
2023-02-02T18:16:13.638Z,10.00
2023-02-02T18:18:43.321Z,10.00
2023-02-02T18:21:14.058Z,10.00
2023-02-02T18:23:42.584Z,10.00
2023-02-02T18:26:12.626Z,10.00
2023-02-02T18:28:41.085Z,10.00
2023-02-02T18:31:11.224Z,10.00
2023-02-02T18:33:41.620Z,10.00
2023-02-02T18:36:15.342Z,10.00
2023-02-02T18:38:45.192Z,10.10
2023-02-02T18:41:13.770Z,10.10
2023-02-02T18:43:44.911Z,10.00
2023-02-02T18:46:15.771Z,10.10
2023-02-02T18:48:44.631Z,10.10
2023-02-02T18:51:18.134Z,10.10
2023-02-02T18:53:47.539Z,10.10
2023-02-02T18:56:17.297Z,10.10
2023-02-02T18:58:45.730Z,10.40
2023-02-02T19:01:18.805Z,10.10
2023-02-02T19:03:50.315Z,10.10
2023-02-02T19:06:38.716Z,10.10
2023-02-02T19:09:07.831Z,10.10
2023-02-02T19:11:43.007Z,10.10
2023-02-02T19:14:15.290Z,10.10
2023-02-02T19:16:44.317Z,10.10
2023-02-02T19:19:24.282Z,10.20
2023-02-02T19:21:56.835Z,10.10
2023-02-02T19:24:27.668Z,10.10
2023-02-02T19:26:56.673Z,10.30
2023-02-02T19:29:26.406Z,10.10
2023-02-02T19:32:00.827Z,10.10
2023-02-02T19:34:30.352Z,10.10
2023-02-02T19:37:00.708Z,10.10
2023-02-02T19:39:31.966Z,10.10
2023-02-02T19:42:02.480Z,10.10
2023-02-02T19:44:34.033Z,10.10
2023-02-02T19:47:20.228Z,10.10
2023-02-02T19:49:48.525Z,10.30
2023-02-02T19:52:24.101Z,10.10
2023-02-02T19:54:52.969Z,10.10
2023-02-02T19:57:25.342Z,10.10
2023-02-02T19:59:55.165Z,10.10
2023-02-02T20:02:40.121Z,10.30
2023-02-02T20:05:19.379Z,10.10
2023-02-02T20:07:54.290Z,10.20
2023-02-02T20:10:25.923Z,10.10
2023-02-02T20:12:55.595Z,10.10
2023-02-02T20:15:33.662Z,10.10
2023-02-02T20:18:04.346Z,10.10
2023-02-02T20:20:38.809Z,10.20
2023-02-02T20:23:21.083Z,10.20
2023-02-02T20:25:49.360Z,10.20
2023-02-02T20:28:33.374Z,10.30
2023-02-02T20:31:35.108Z,10.20
2023-02-02T20:34:08.929Z,10.20
2023-02-02T20:36:40.917Z,10.20
2023-02-02T20:39:31.433Z,10.20
2023-02-02T20:42:04.223Z,10.20
2023-02-02T20:44:35.008Z,10.20
2023-02-02T20:47:04.177Z,10.20
2023-02-02T20:49:35.205Z,10.40
2023-02-02T20:52:10.995Z,10.20
2023-02-02T20:54:41.155Z,10.20
2023-02-02T20:57:11.541Z,10.20
2023-02-02T20:59:42.239Z,10.30
2023-02-02T21:02:19.868Z,10.20
2023-02-02T21:04:51.064Z,10.30
2023-02-02T21:07:22.247Z,10.30
2023-02-02T21:09:57.004Z,10.30
2023-02-02T21:12:27.324Z,10.30
2023-02-02T21:14:56.215Z,10.30
2023-02-02T21:17:24.989Z,10.30
2023-02-02T21:19:53.364Z,10.30
2023-02-02T21:22:21.761Z,10.30
2023-02-02T21:24:50.080Z,10.30
2023-02-02T21:27:19.836Z,10.30
2023-02-02T21:29:48.247Z,10.30
2023-02-02T21:32:16.633Z,10.30
2023-02-02T21:34:44.936Z,10.30
2023-02-02T21:37:15.484Z,10.30
2023-02-02T21:39:48.498Z,10.30
2023-02-02T21:42:20.428Z,10.30
2023-02-02T21:44:53.865Z,10.30
2023-02-02T21:47:33.502Z,10.30
2023-02-02T21:50:15.043Z,10.30
2023-02-02T21:52:44.079Z,10.30
2023-02-02T21:55:36.302Z,10.30
2023-02-02T21:58:18.339Z,10.30
2023-02-02T22:00:47.256Z,10.30
2023-02-02T22:03:29.262Z,10.30
2023-02-02T22:06:22.459Z,10.30
2023-02-02T22:08:51.377Z,10.30
2023-02-02T22:11:29.443Z,10.30
2023-02-02T22:14:08.940Z,10.30
2023-02-02T22:16:42.272Z,10.30
2023-02-02T22:19:30.293Z,10.40
2023-02-02T22:22:17.005Z,10.40
2023-02-02T22:24:47.304Z,10.40
2023-02-02T22:27:24.263Z,10.40
2023-02-02T22:29:59.129Z,10.40
2023-02-02T22:32:27.611Z,10.40
2023-02-02T22:34:55.798Z,10.40
2023-02-02T22:37:24.064Z,10.40
2023-02-02T22:39:52.336Z,10.40
2023-02-02T22:42:23.391Z,10.40
2023-02-02T22:44:51.598Z,10.40
2023-02-02T22:47:21.373Z,10.40
2023-02-02T22:49:49.632Z,10.40
2023-02-02T22:52:17.941Z,10.40
2023-02-02T22:54:47.633Z,10.40
2023-02-02T22:57:15.780Z,10.40
2023-02-02T22:59:44.151Z,10.40
2023-02-02T23:02:14.938Z,10.40
2023-02-02T23:04:44.485Z,10.40
2023-02-02T23:07:12.702Z,10.40
2023-02-02T23:09:41.211Z,10.40
2023-02-02T23:12:12.066Z,10.40
2023-02-02T23:14:40.294Z,10.40
2023-02-02T23:17:08.827Z,10.40
2023-02-02T23:19:37.041Z,10.40
2023-02-02T23:22:06.533Z,10.40
2023-02-02T23:24:34.764Z,10.40
2023-02-02T23:27:03.093Z,10.40
2023-02-02T23:29:31.336Z,10.40
2023-02-02T23:31:59.519Z,10.40
2023-02-02T23:34:27.703Z,10.40
2023-02-02T23:36:55.979Z,10.50
2023-02-02T23:39:25.583Z,10.40
2023-02-02T23:41:53.744Z,10.40
2023-02-02T23:44:21.925Z,10.50
2023-02-02T23:46:50.911Z,10.40
2023-02-02T23:49:19.241Z,10.40
2023-02-02T23:51:47.784Z,10.50
2023-02-02T23:54:16.106Z,10.40
2023-02-02T23:56:47.626Z,10.40
2023-02-02T23:59:15.722Z,10.50
